createdAt,value
2022-11-13T00:00:12.828Z,48
2022-11-13T00:05:55.250Z,46
2022-11-13T00:11:36.355Z,54
2022-11-13T00:17:16.619Z,44
2022-11-13T00:22:56.933Z,46
2022-11-13T00:28:38.341Z,54
2022-11-13T00:34:48.971Z,42
2022-11-13T00:40:29.627Z,66
2022-11-13T00:46:10.908Z,48
2022-11-13T00:51:51.137Z,42
2022-11-13T00:57:31.006Z,52
2022-11-13T01:03:12.172Z,54
2022-11-13T01:08:53.463Z,56
2022-11-13T01:14:33.598Z,58
2022-11-13T01:20:14.436Z,52
2022-11-13T01:25:54.963Z,44
2022-11-13T01:31:35.215Z,46
2022-11-13T01:37:15.898Z,38
2022-11-13T01:42:56.859Z,54
2022-11-13T01:48:36.628Z,54
2022-11-13T01:54:17.243Z,56
2022-11-13T01:59:57.434Z,44
2022-11-13T02:05:37.244Z,54
2022-11-13T02:11:17.571Z,56
2022-11-13T02:16:58.233Z,52
2022-11-13T02:22:38.085Z,54
2022-11-13T02:28:19.647Z,52
2022-11-13T02:34:00.113Z,46
2022-11-13T02:39:44.229Z,52
2022-11-13T02:45:25.395Z,48
2022-11-13T02:51:05.658Z,56
2022-11-13T02:56:45.938Z,54
2022-11-13T03:02:26.549Z,40
2022-11-13T03:08:09.560Z,48
2022-11-13T03:13:49.758Z,54
2022-11-13T03:19:30.465Z,52
2022-11-13T03:25:11.651Z,54
2022-11-13T03:30:54.640Z,36
2022-11-13T03:36:35.296Z,46
2022-11-13T03:42:15.676Z,58
2022-11-13T03:47:55.751Z,42
2022-11-13T03:53:36.853Z,44
2022-11-13T03:59:17.067Z,44
2022-11-13T04:05:23.401Z,44
2022-11-13T04:11:04.310Z,38
2022-11-13T04:16:44.924Z,44
2022-11-13T04:22:25.199Z,40
2022-11-13T04:28:06.179Z,36
2022-11-13T04:33:46.788Z,56
2022-11-13T04:39:27.208Z,50
2022-11-13T04:45:08.655Z,40
2022-11-13T04:50:49.630Z,48
2022-11-13T04:56:30.086Z,58
2022-11-13T05:02:10.827Z,54
2022-11-13T05:07:51.864Z,48
2022-11-13T05:13:32.993Z,46
2022-11-13T05:19:13.920Z,40
2022-11-13T05:24:54.572Z,40
2022-11-13T05:30:35.728Z,56
2022-11-13T05:36:16.492Z,52
2022-11-13T05:41:57.028Z,42
2022-11-13T05:47:37.538Z,46
2022-11-13T05:53:18.177Z,36
2022-11-13T05:59:01.133Z,56
2022-11-13T06:04:41.679Z,40
2022-11-13T06:10:22.284Z,38
2022-11-13T06:16:05.552Z,72
2022-11-13T06:21:45.757Z,56
2022-11-13T06:27:26.586Z,46
2022-11-13T06:33:07.131Z,50
2022-11-13T06:38:50.601Z,48
2022-11-13T06:44:34.603Z,56
2022-11-13T06:50:15.130Z,90
2022-11-13T06:55:55.165Z,46
2022-11-13T07:01:36.290Z,42
2022-11-13T07:07:17.289Z,44
2022-11-13T07:13:01.061Z,44
2022-11-13T07:18:41.605Z,40
2022-11-13T07:24:22.390Z,54
2022-11-13T07:30:04.594Z,44
2022-11-13T07:35:45.525Z,52
2022-11-13T07:41:25.886Z,54
2022-11-13T07:47:05.925Z,50
2022-11-13T07:52:46.666Z,42
2022-11-13T07:58:29.145Z,48
2022-11-13T08:04:11.863Z,46
2022-11-13T08:09:52.835Z,48
2022-11-13T08:15:33.400Z,48
2022-11-13T08:21:15.473Z,40
2022-11-13T08:26:58.387Z,54
2022-11-13T08:32:39.297Z,42
2022-11-13T08:38:19.584Z,44
2022-11-13T08:44:00.672Z,46
2022-11-13T08:49:41.573Z,52
2022-11-13T08:55:21.872Z,34
2022-11-13T09:01:02.727Z,2
2022-11-13T09:06:44.166Z,22
2022-11-13T09:12:24.642Z,14
2022-11-13T09:18:05.203Z,22
2022-11-13T09:23:45.674Z,2
2022-11-13T09:29:25.824Z,10
2022-11-13T09:35:06.568Z,4
2022-11-13T09:40:46.968Z,16
2022-11-13T09:46:27.046Z,6
2022-11-13T09:52:07.895Z,6
2022-11-13T09:57:50.874Z,8
2022-11-13T10:04:04.823Z,12
2022-11-13T10:09:45.624Z,8
2022-11-13T10:15:26.402Z,10
2022-11-13T10:21:10.211Z,4
2022-11-13T10:26:51.054Z,2
2022-11-13T10:32:31.405Z,0
2022-11-13T10:38:14.630Z,0
2022-11-13T10:44:05.112Z,0
2022-11-13T10:49:45.788Z,0
2022-11-13T10:55:26.345Z,0
2022-11-13T11:01:07.336Z,0
2022-11-13T11:07:22.327Z,0
2022-11-13T11:13:03.253Z,0
2022-11-13T11:18:46.758Z,0
2022-11-13T11:24:29.629Z,0
2022-11-13T11:30:25.983Z,0
2022-11-13T11:36:13.349Z,0
2022-11-13T11:41:53.442Z,0
2022-11-13T11:47:33.873Z,0
2022-11-13T11:53:19.540Z,4
2022-11-13T11:59:01.768Z,6
2022-11-13T12:04:44.761Z,0
2022-11-13T12:10:30.119Z,0
2022-11-13T12:16:10.713Z,0
2022-11-13T12:21:50.770Z,2
2022-11-13T12:27:32.402Z,0
2022-11-13T12:33:23.886Z,2
2022-11-13T12:39:14.192Z,0
2022-11-13T12:44:56.073Z,0
2022-11-13T12:50:36.821Z,0
2022-11-13T12:56:17.432Z,0
2022-11-13T13:01:58.957Z,2
2022-11-13T13:07:44.620Z,4
2022-11-13T13:13:35.726Z,2
2022-11-13T13:19:16.994Z,2
2022-11-13T13:25:00.652Z,2
2022-11-13T13:30:41.212Z,2
2022-11-13T13:36:21.634Z,0
2022-11-13T13:42:08.057Z,0
2022-11-13T13:47:49.010Z,0
2022-11-13T13:53:32.915Z,8
2022-11-13T13:59:13.743Z,2
2022-11-13T14:04:56.652Z,12
2022-11-13T14:10:37.494Z,62
2022-11-13T14:16:17.880Z,50
2022-11-13T14:21:58.106Z,50
2022-11-13T14:27:39.609Z,56
2022-11-13T14:33:20.584Z,54
2022-11-13T14:39:00.628Z,42
2022-11-13T14:44:41.340Z,44
2022-11-13T14:50:21.906Z,52
2022-11-13T14:56:02.320Z,62
2022-11-13T15:01:42.999Z,56
2022-11-13T15:07:23.824Z,34
2022-11-13T15:13:04.692Z,54
2022-11-13T15:18:57.334Z,42
2022-11-13T15:24:44.459Z,46
2022-11-13T15:30:24.765Z,38
2022-11-13T15:36:05.580Z,56
2022-11-13T15:41:46.037Z,56
2022-11-13T15:47:25.862Z,50
2022-11-13T15:53:06.611Z,50
2022-11-13T15:58:46.961Z,56
2022-11-13T16:05:27.347Z,56
2022-11-13T16:11:08.687Z,44
2022-11-13T16:16:49.058Z,38
2022-11-13T16:22:29.099Z,48
2022-11-13T16:28:09.933Z,44
2022-11-13T16:33:51.189Z,46
2022-11-13T16:39:33.258Z,44
2022-11-13T16:45:16.417Z,54
2022-11-13T16:51:00.139Z,52
2022-11-13T16:56:43.660Z,40
2022-11-13T17:02:24.015Z,44
2022-11-13T17:08:04.372Z,58
2022-11-13T17:13:44.739Z,48
2022-11-13T17:19:25.152Z,46
2022-11-13T17:25:05.647Z,58
2022-11-13T17:30:45.563Z,44
2022-11-13T17:36:26.306Z,56
2022-11-13T17:42:06.832Z,40
2022-11-13T17:47:49.979Z,46
2022-11-13T17:53:33.433Z,54
2022-11-13T17:59:13.747Z,52
2022-11-13T18:04:53.565Z,58
2022-11-13T18:10:35.669Z,46
2022-11-13T18:16:17.214Z,44
2022-11-13T18:22:00.341Z,42
2022-11-13T18:27:47.049Z,40
2022-11-13T18:33:44.262Z,52
2022-11-13T18:39:26.897Z,56
2022-11-13T18:45:13.395Z,56
2022-11-13T18:50:58.351Z,48
2022-11-13T18:56:38.377Z,48
2022-11-13T19:02:22.176Z,42
2022-11-13T19:08:10.489Z,54
2022-11-13T19:13:54.369Z,62
2022-11-13T19:19:40.775Z,50
2022-11-13T19:25:30.328Z,56
2022-11-13T19:31:15.857Z,46
2022-11-13T19:37:02.712Z,56
2022-11-13T19:42:46.796Z,46
2022-11-13T19:48:33.835Z,56
2022-11-13T19:54:16.341Z,56
2022-11-13T20:00:07.602Z,44
2022-11-13T20:05:51.231Z,42
2022-11-13T20:11:47.371Z,46
2022-11-13T20:17:31.984Z,52
2022-11-13T20:23:12.330Z,56
2022-11-13T20:28:56.846Z,52
2022-11-13T20:34:39.964Z,52
2022-11-13T20:40:25.896Z,54
2022-11-13T20:46:09.257Z,42
2022-11-13T20:51:57.704Z,56
2022-11-13T20:57:41.569Z,46
2022-11-13T21:03:29.247Z,54
2022-11-13T21:09:10.613Z,54
2022-11-13T21:14:51.510Z,38
2022-11-13T21:20:32.115Z,54
2022-11-13T21:26:12.674Z,54
2022-11-13T21:31:53.139Z,48
2022-11-13T21:37:33.984Z,56
2022-11-13T21:43:14.363Z,40
2022-11-13T21:48:54.598Z,48
2022-11-13T21:54:35.551Z,68
2022-11-13T22:00:16.264Z,54
2022-11-13T22:50:05.121Z,54
2022-11-13T22:55:44.790Z,44
2022-11-13T23:01:24.827Z,56
2022-11-13T23:07:06.786Z,52
2022-11-13T23:12:46.893Z,42
2022-11-13T23:18:28.226Z,56
2022-11-13T23:24:10.193Z,52
2022-11-13T23:29:50.924Z,40
2022-11-13T23:35:30.847Z,56
2022-11-13T23:41:11.744Z,48
2022-11-13T23:46:54.452Z,48
2022-11-13T23:52:34.766Z,46
2022-11-13T23:58:15.669Z,48
